createdAt,value
2023-03-30T00:01:03.629Z,100326.88
2023-03-30T00:04:30.686Z,100320.20
2023-03-30T00:07:57.795Z,100316.66
2023-03-30T00:11:25.319Z,100317.11
2023-03-30T00:14:54.265Z,100312.72
2023-03-30T00:18:22.071Z,100311.77
2023-03-30T00:21:52.769Z,100313.51
2023-03-30T00:25:26.724Z,100305.08
2023-03-30T00:28:54.391Z,100296.73
2023-03-30T00:32:21.986Z,100289.91
2023-03-30T00:35:55.121Z,100287.62
2023-03-30T00:39:23.146Z,100290.10
2023-03-30T00:42:50.281Z,100288.41
2023-03-30T00:46:17.179Z,100288.75
2023-03-30T00:49:46.270Z,100285.20
2023-03-30T00:53:18.546Z,100288.48
2023-03-30T00:56:46.347Z,100287.77
2023-03-30T01:00:15.563Z,100285.14
2023-03-30T01:03:46.172Z,100287.70
2023-03-30T01:07:13.787Z,100277.19
2023-03-30T01:10:42.741Z,100274.71
2023-03-30T01:14:11.930Z,100275.06
2023-03-30T01:17:53.666Z,100270.16
2023-03-30T01:21:49.000Z,100270.97
2023-03-30T01:25:50.595Z,100267.48
2023-03-30T01:29:31.553Z,100264.55
2023-03-30T01:33:25.294Z,100258.27
2023-03-30T01:37:19.086Z,100256.23
2023-03-30T01:40:52.224Z,100253.94
2023-03-30T01:44:27.202Z,100252.27
2023-03-30T01:48:01.046Z,100251.23
2023-03-30T01:51:34.129Z,100247.00
2023-03-30T01:55:06.243Z,100249.24
2023-03-30T01:58:37.785Z,100246.34
2023-03-30T02:02:07.622Z,100247.30
2023-03-30T02:05:39.990Z,100248.23
2023-03-30T02:09:08.140Z,100242.79
2023-03-30T02:12:36.732Z,100239.56
2023-03-30T02:16:08.909Z,100242.55
2023-03-30T02:19:38.099Z,100239.86
2023-03-30T02:23:06.248Z,100235.08
2023-03-30T02:26:34.501Z,100233.58
2023-03-30T02:30:01.961Z,100229.28
2023-03-30T02:33:44.799Z,100225.16
2023-03-30T02:37:40.063Z,100217.23
2023-03-30T02:41:20.347Z,100213.39
2023-03-30T02:44:53.743Z,100214.27
2023-03-30T02:48:35.092Z,100209.43
2023-03-30T02:52:09.545Z,100208.96
2023-03-30T02:55:50.340Z,100207.32
2023-03-30T02:59:42.289Z,100207.27
2023-03-30T03:03:17.411Z,100204.02
2023-03-30T03:06:45.286Z,100200.75
2023-03-30T03:10:13.929Z,100195.86
2023-03-30T03:13:42.612Z,100191.64
2023-03-30T03:17:09.861Z,100192.77
2023-03-30T03:20:42.090Z,100189.48
2023-03-30T03:24:09.221Z,100181.81
2023-03-30T03:27:55.121Z,100182.14
2023-03-30T03:31:24.521Z,100175.35
2023-03-30T03:34:51.616Z,100171.33
2023-03-30T03:38:19.137Z,100167.91
2023-03-30T03:41:48.521Z,100159.74
2023-03-30T03:45:16.021Z,100149.86
2023-03-30T03:48:55.020Z,100149.67
2023-03-30T03:52:21.902Z,100147.18
2023-03-30T03:55:48.789Z,100140.95
2023-03-30T03:59:15.879Z,100134.19
2023-03-30T04:02:43.593Z,100130.02
2023-03-30T04:06:11.713Z,100131.41
2023-03-30T04:09:39.114Z,100127.44
2023-03-30T04:13:09.143Z,100125.65
2023-03-30T04:16:59.236Z,100117.27
2023-03-30T04:20:46.635Z,100117.99
2023-03-30T04:24:38.749Z,100117.20
2023-03-30T04:28:37.884Z,100108.73
2023-03-30T04:32:34.975Z,100107.80
2023-03-30T04:36:19.209Z,100104.69
2023-03-30T04:40:16.945Z,100096.94
2023-03-30T04:43:59.914Z,100092.84
2023-03-30T04:47:53.266Z,100090.80
2023-03-30T04:51:40.027Z,100082.80
2023-03-30T04:55:25.755Z,100079.79
2023-03-30T04:59:08.768Z,100079.32
2023-03-30T05:03:06.296Z,100084.35
2023-03-30T05:06:52.254Z,100086.10
2023-03-30T05:10:43.518Z,100078.88
2023-03-30T05:14:34.237Z,100081.30
2023-03-30T05:18:20.962Z,100082.86
2023-03-30T05:22:06.331Z,100090.11
2023-03-30T05:25:33.615Z,100092.60
2023-03-30T05:29:07.814Z,100089.69
2023-03-30T05:32:56.065Z,100086.61
2023-03-30T05:36:48.826Z,100086.67
2023-03-30T05:40:27.959Z,100081.67
2023-03-30T05:44:22.557Z,100079.89
2023-03-30T05:48:22.163Z,100081.07
2023-03-30T05:52:07.153Z,100078.52
2023-03-30T05:55:57.184Z,100076.77
2023-03-30T05:59:30.650Z,100065.79
2023-03-30T06:03:16.688Z,100063.81
2023-03-30T06:06:46.531Z,100062.56
2023-03-30T06:10:25.867Z,100062.58
2023-03-30T06:13:54.949Z,100064.36
2023-03-30T06:17:22.730Z,100062.41
2023-03-30T06:20:52.278Z,100052.70
2023-03-30T06:24:21.069Z,100047.85
2023-03-30T06:27:49.982Z,100043.66
2023-03-30T06:31:20.376Z,100048.65
2023-03-30T06:34:53.888Z,100047.02
2023-03-30T06:38:23.771Z,100045.77
2023-03-30T06:41:52.692Z,100043.34
2023-03-30T06:45:32.918Z,100041.75
2023-03-30T06:49:11.125Z,100037.88
2023-03-30T06:52:46.691Z,100039.25
2023-03-30T06:56:14.596Z,100032.95
2023-03-30T06:59:58.150Z,100030.28
2023-03-30T07:03:46.293Z,100033.77
2023-03-30T07:07:23.966Z,100027.45
2023-03-30T07:10:51.889Z,100025.89
2023-03-30T07:14:19.820Z,100026.91
2023-03-30T07:17:47.812Z,100027.08
2023-03-30T07:21:19.226Z,100022.87
2023-03-30T07:24:48.018Z,100023.52
2023-03-30T07:28:17.916Z,100024.88
2023-03-30T07:31:46.446Z,100022.19
2023-03-30T07:35:30.907Z,100021.84
2023-03-30T07:39:00.111Z,100017.88
2023-03-30T07:42:28.755Z,100018.57
2023-03-30T07:45:56.391Z,100020.81
2023-03-30T07:49:29.310Z,100017.20
2023-03-30T07:52:56.544Z,100016.38
2023-03-30T07:56:26.099Z,100018.56
2023-03-30T07:59:56.188Z,100018.16
2023-03-30T08:03:45.820Z,100009.17
2023-03-30T08:07:14.143Z,100006.83
2023-03-30T08:10:41.520Z,99998.71
2023-03-30T08:14:09.316Z,99995.14
2023-03-30T08:17:36.879Z,99995.97
2023-03-30T08:21:05.487Z,99994.70
2023-03-30T08:24:33.159Z,99992.32
2023-03-30T08:28:00.124Z,99985.93
2023-03-30T08:31:27.517Z,99980.42
2023-03-30T08:34:55.411Z,99978.48
2023-03-30T08:38:22.387Z,99972.77
2023-03-30T08:42:04.635Z,99969.23
2023-03-30T08:45:41.816Z,99960.73
2023-03-30T08:49:16.428Z,99958.86
2023-03-30T08:52:49.237Z,99956.08
2023-03-30T08:56:22.146Z,99956.52
2023-03-30T09:00:07.680Z,99948.52
2023-03-30T09:03:43.321Z,99949.02
2023-03-30T09:07:20.802Z,99943.57
2023-03-30T09:10:54.750Z,99932.86
2023-03-30T09:14:37.666Z,99922.97
2023-03-30T09:18:11.582Z,99922.73
2023-03-30T09:21:36.980Z,99914.06
2023-03-30T09:25:17.811Z,99903.56
2023-03-30T09:28:51.978Z,99898.75
2023-03-30T09:32:32.898Z,99891.61
2023-03-30T09:36:12.450Z,99883.00
2023-03-30T09:39:43.777Z,99876.52
2023-03-30T09:43:25.414Z,99877.45
2023-03-30T09:46:54.612Z,99874.45
2023-03-30T09:50:24.805Z,99869.21
2023-03-30T09:53:55.769Z,99867.71
2023-03-30T09:57:33.677Z,99858.24
2023-03-30T10:01:12.886Z,99856.77
2023-03-30T10:05:00.582Z,99860.41
2023-03-30T10:08:46.392Z,99857.64
2023-03-30T10:12:16.416Z,99865.29
2023-03-30T10:15:46.408Z,99863.42
2023-03-30T10:19:21.143Z,99846.79
2023-03-30T10:22:57.355Z,99833.91
2023-03-30T10:26:31.741Z,99828.66
2023-03-30T10:29:58.712Z,99816.88
2023-03-30T10:33:28.393Z,99809.36
2023-03-30T10:36:56.772Z,99805.92
2023-03-30T10:40:28.040Z,99793.55
2023-03-30T10:43:55.714Z,99785.13
2023-03-30T10:47:37.943Z,99771.55
2023-03-30T10:51:12.802Z,99770.02
2023-03-30T10:54:44.575Z,99766.77
2023-03-30T10:58:21.922Z,99763.71
2023-03-30T11:02:02.775Z,99773.30
2023-03-30T11:05:36.481Z,99775.47
2023-03-30T11:09:03.863Z,99774.15
2023-03-30T11:12:40.697Z,99771.44
2023-03-30T11:16:14.807Z,99762.94
2023-03-30T11:19:46.088Z,99771.48
2023-03-30T11:23:22.792Z,99763.66
2023-03-30T11:26:56.989Z,99757.77
2023-03-30T11:30:29.703Z,99756.20
2023-03-30T11:34:04.920Z,99752.43
2023-03-30T11:37:41.388Z,99743.91
2023-03-30T11:41:15.203Z,99728.30
2023-03-30T11:44:42.729Z,99725.48
2023-03-30T11:48:26.090Z,99722.10
2023-03-30T11:52:02.306Z,99720.70
2023-03-30T11:55:41.642Z,99716.20
2023-03-30T11:59:17.411Z,99707.19
2023-03-30T12:02:52.631Z,99693.90
2023-03-30T12:06:30.154Z,99676.84
2023-03-30T12:10:03.329Z,99674.03
2023-03-30T12:13:41.262Z,99677.65
2023-03-30T12:17:36.268Z,99668.91
2023-03-30T12:21:16.647Z,99672.76
2023-03-30T12:24:50.902Z,99675.45
2023-03-30T12:28:21.122Z,99675.46
2023-03-30T12:32:07.915Z,99668.33
2023-03-30T12:36:06.023Z,99662.86
2023-03-30T12:39:36.416Z,99658.27
2023-03-30T12:43:11.300Z,99649.06
2023-03-30T12:46:50.424Z,99643.55
2023-03-30T12:50:37.497Z,99635.80
2023-03-30T12:54:32.072Z,99630.90
2023-03-30T12:58:31.313Z,99638.21
2023-03-30T13:02:36.189Z,99628.84
2023-03-30T13:06:26.088Z,99626.73
2023-03-30T13:09:59.676Z,99634.55
2023-03-30T13:13:55.346Z,99634.69
2023-03-30T13:17:25.155Z,99632.70
2023-03-30T13:21:17.775Z,99626.83
2023-03-30T13:24:53.899Z,99627.45
2023-03-30T13:28:58.282Z,99630.73
2023-03-30T13:32:38.924Z,99625.70
2023-03-30T13:36:15.038Z,99624.19
2023-03-30T13:39:48.293Z,99617.17
2023-03-30T13:43:25.074Z,99606.30
2023-03-30T13:46:55.634Z,99590.92
2023-03-30T13:50:28.215Z,99578.11
2023-03-30T13:53:59.800Z,99571.20
2023-03-30T13:57:34.623Z,99569.84
2023-03-30T14:01:06.674Z,99571.70
2023-03-30T14:04:35.453Z,99571.96
2023-03-30T14:08:04.606Z,99570.37
2023-03-30T14:11:37.796Z,99566.37
2023-03-30T14:15:17.111Z,99554.76
2023-03-30T14:18:45.875Z,99550.82
2023-03-30T14:22:20.104Z,99540.61
2023-03-30T14:25:48.382Z,99538.04
2023-03-30T14:29:30.348Z,99532.05
2023-03-30T14:33:13.155Z,99527.09
2023-03-30T14:36:40.507Z,99515.02
2023-03-30T14:40:17.893Z,99507.70
2023-03-30T14:43:49.156Z,99494.69
2023-03-30T14:47:17.264Z,99494.71
2023-03-30T14:50:50.341Z,99487.96
2023-03-30T14:54:22.227Z,99481.54
2023-03-30T14:57:51.692Z,99474.91
2023-03-30T15:01:25.723Z,99469.42
2023-03-30T15:04:55.707Z,99464.47
2023-03-30T15:08:27.241Z,99461.82
2023-03-30T15:11:58.745Z,99453.67
2023-03-30T15:15:32.128Z,99446.27
2023-03-30T15:19:04.896Z,99439.41
2023-03-30T15:22:38.114Z,99433.16
2023-03-30T15:26:08.772Z,99424.00
2023-03-30T15:29:59.811Z,99416.83
2023-03-30T15:33:55.560Z,99409.63
2023-03-30T15:37:30.397Z,99403.16
2023-03-30T15:40:59.744Z,99401.13
2023-03-30T15:44:27.815Z,99396.05
2023-03-30T15:47:56.671Z,99399.90
2023-03-30T15:51:33.280Z,99396.53
2023-03-30T15:55:08.287Z,99393.29
2023-03-30T15:58:36.277Z,99384.58
2023-03-30T16:02:15.387Z,99376.70
2023-03-30T16:05:44.862Z,99379.18
2023-03-30T16:09:11.805Z,99372.66
2023-03-30T16:12:41.746Z,99370.21
2023-03-30T16:16:09.442Z,99364.55
2023-03-30T16:19:38.097Z,99363.54
2023-03-30T16:23:05.509Z,99359.34
2023-03-30T16:26:32.876Z,99369.91
2023-03-30T16:30:00.213Z,99379.66
2023-03-30T16:33:28.391Z,99382.61
2023-03-30T16:36:57.569Z,99386.42
2023-03-30T16:40:35.137Z,99381.38
2023-03-30T16:44:03.658Z,99386.27
2023-03-30T16:47:32.238Z,99382.53
2023-03-30T16:51:01.320Z,99390.21
2023-03-30T16:54:32.483Z,99389.75
2023-03-30T16:58:06.361Z,99387.38
2023-03-30T17:01:37.413Z,99388.00
2023-03-30T17:05:04.822Z,99390.02
2023-03-30T17:08:32.917Z,99387.60
2023-03-30T17:12:03.876Z,99384.00
2023-03-30T17:15:36.897Z,99381.58
2023-03-30T17:19:12.174Z,99373.61
2023-03-30T17:22:42.593Z,99371.21
2023-03-30T17:26:13.480Z,99375.32
2023-03-30T17:29:44.903Z,99373.14
2023-03-30T17:33:13.205Z,99366.22
2023-03-30T17:36:44.457Z,99361.82
2023-03-30T17:40:22.774Z,99363.51
2023-03-30T17:43:50.538Z,99352.59
2023-03-30T17:47:18.014Z,99339.70
2023-03-30T17:50:48.400Z,99331.95
2023-03-30T17:54:16.733Z,99337.39
2023-03-30T17:57:45.074Z,99343.96
2023-03-30T18:01:14.102Z,99345.18
2023-03-30T18:04:41.308Z,99336.70
2023-03-30T18:08:14.839Z,99332.63
2023-03-30T18:11:43.129Z,99331.83
2023-03-30T18:15:12.993Z,99340.43
2023-03-30T18:18:40.653Z,99338.54
2023-03-30T18:22:08.128Z,99335.57
2023-03-30T18:25:36.016Z,99332.99
2023-03-30T18:29:06.791Z,99329.15
2023-03-30T18:32:47.141Z,99327.82
2023-03-30T18:36:16.633Z,99321.40
2023-03-30T18:39:45.391Z,99321.33
2023-03-30T18:43:15.335Z,99321.77
2023-03-30T18:46:43.664Z,99319.89
2023-03-30T18:50:27.546Z,99312.23
2023-03-30T18:53:54.924Z,99309.44
2023-03-30T18:57:22.059Z,99311.23
2023-03-30T19:00:50.896Z,99311.71
2023-03-30T19:04:17.814Z,99318.58
2023-03-30T19:07:46.003Z,99318.00
2023-03-30T19:11:15.245Z,99325.86
2023-03-30T19:14:42.156Z,99337.77
2023-03-30T19:18:10.619Z,99329.52
2023-03-30T19:21:37.741Z,99318.91
2023-03-30T19:25:06.008Z,99313.09
2023-03-30T19:28:33.683Z,99315.96
2023-03-30T19:32:01.007Z,99311.16
2023-03-30T19:35:28.761Z,99314.59
2023-03-30T19:38:56.707Z,99310.73
2023-03-30T19:42:30.002Z,99308.08
2023-03-30T19:45:58.649Z,99309.29
2023-03-30T19:49:31.462Z,99316.30
2023-03-30T19:53:04.368Z,99331.39
2023-03-30T19:56:36.503Z,99340.20
2023-03-30T20:00:24.394Z,99354.21
2023-03-30T20:03:59.896Z,99362.99
2023-03-30T20:07:28.685Z,99362.23
2023-03-30T20:10:58.864Z,99365.63
2023-03-30T20:14:29.348Z,99372.75
2023-03-30T20:17:59.973Z,99375.30
2023-03-30T20:21:30.277Z,99368.87
2023-03-30T20:24:59.799Z,99365.84
2023-03-30T20:28:27.780Z,99364.02
2023-03-30T20:31:57.749Z,99363.02
2023-03-30T20:35:25.983Z,99359.45
2023-03-30T20:38:55.908Z,99361.27
2023-03-30T20:42:26.595Z,99360.27
2023-03-30T20:46:02.779Z,99358.46
2023-03-30T20:49:30.316Z,99359.77
2023-03-30T20:52:59.362Z,99363.44
2023-03-30T20:56:29.257Z,99358.31
2023-03-30T20:59:57.332Z,99351.52
2023-03-30T21:03:29.243Z,99347.10
2023-03-30T21:06:57.443Z,99348.46
2023-03-30T21:10:27.120Z,99347.48
2023-03-30T21:13:58.284Z,99348.10
2023-03-30T21:17:29.465Z,99355.60
2023-03-30T21:20:58.176Z,99355.77
2023-03-30T21:24:29.246Z,99359.16
2023-03-30T21:27:56.847Z,99358.92
2023-03-30T21:31:24.722Z,99360.17
2023-03-30T21:34:52.686Z,99363.03
2023-03-30T21:38:34.397Z,99364.15
2023-03-30T21:42:03.446Z,99370.88
2023-03-30T21:45:35.111Z,99368.84
2023-03-30T21:49:03.987Z,99370.31
2023-03-30T21:52:34.506Z,99368.16
2023-03-30T21:56:04.903Z,99369.90
2023-03-30T21:59:34.435Z,99371.64
2023-03-30T22:03:03.401Z,99361.48
2023-03-30T22:06:32.993Z,99364.53
2023-03-30T22:10:02.649Z,99364.03
2023-03-30T22:13:32.975Z,99363.42
2023-03-30T22:17:05.312Z,99356.86
2023-03-30T22:20:39.788Z,99353.98
2023-03-30T22:24:09.216Z,99356.92
2023-03-30T22:27:39.993Z,99360.71
2023-03-30T22:31:11.936Z,99365.66
2023-03-30T22:34:40.996Z,99363.56
2023-03-30T22:38:09.847Z,99365.83
2023-03-30T22:41:36.888Z,99361.14
2023-03-30T22:45:04.241Z,99357.17
2023-03-30T22:48:33.908Z,99361.86
2023-03-30T22:52:02.716Z,99362.72
2023-03-30T22:55:32.072Z,99368.29
2023-03-30T22:59:01.218Z,99366.39
2023-03-30T23:02:31.411Z,99377.77
2023-03-30T23:06:02.433Z,99373.73
2023-03-30T23:09:32.258Z,99383.20
2023-03-30T23:13:00.142Z,99385.63
2023-03-30T23:16:29.222Z,99389.53
2023-03-30T23:20:00.959Z,99388.25
2023-03-30T23:23:28.555Z,99391.91
2023-03-30T23:26:57.059Z,99396.89
2023-03-30T23:30:25.297Z,99396.55
2023-03-30T23:33:53.672Z,99399.73
2023-03-30T23:37:22.213Z,99405.61
2023-03-30T23:40:52.196Z,99412.47
2023-03-30T23:44:19.701Z,99415.89
2023-03-30T23:47:46.842Z,99413.45
2023-03-30T23:51:14.233Z,99409.41
2023-03-30T23:54:41.508Z,99418.68
2023-03-30T23:58:09.169Z,99417.14
